sensor_id;sensor_type;location;lat;lon;timestamp;P1;durP1;ratioP1;P2;durP2;ratioP2
66559;SDS011;53413;49.878;8.142;2023-04-01T00:02:16;6.57;;;1.38;;
66559;SDS011;53413;49.878;8.142;2023-04-01T00:04:41;6.57;;;1.00;;
66559;SDS011;53413;49.878;8.142;2023-04-01T00:07:08;5.13;;;1.23;;
66559;SDS011;53413;49.878;8.142;2023-04-01T00:09:34;4.33;;;1.00;;
66559;SDS011;53413;49.878;8.142;2023-04-01T00:12:00;5.57;;;0.90;;
66559;SDS011;53413;49.878;8.142;2023-04-01T00:14:25;5.45;;;1.10;;
66559;SDS011;53413;49.878;8.142;2023-04-01T00:16:51;5.33;;;1.03;;
66559;SDS011;53413;49.878;8.142;2023-04-01T00:19:17;4.72;;;1.00;;
66559;SDS011;53413;49.878;8.142;2023-04-01T00:21:43;6.27;;;1.33;;
66559;SDS011;53413;49.878;8.142;2023-04-01T00:24:08;4.93;;;1.13;;
66559;SDS011;53413;49.878;8.142;2023-04-01T00:26:34;5.30;;;1.40;;
66559;SDS011;53413;49.878;8.142;2023-04-01T00:28:59;5.93;;;1.10;;
66559;SDS011;53413;49.878;8.142;2023-04-01T00:31:25;5.45;;;1.35;;
66559;SDS011;53413;49.878;8.142;2023-04-01T00:33:51;4.33;;;1.33;;
66559;SDS011;53413;49.878;8.142;2023-04-01T00:36:18;5.85;;;1.35;;
66559;SDS011;53413;49.878;8.142;2023-04-01T00:38:46;5.60;;;1.30;;
66559;SDS011;53413;49.878;8.142;2023-04-01T00:41:12;5.47;;;1.40;;
66559;SDS011;53413;49.878;8.142;2023-04-01T00:43:41;5.47;;;1.45;;
66559;SDS011;53413;49.878;8.142;2023-04-01T00:46:07;5.50;;;1.45;;
66559;SDS011;53413;49.878;8.142;2023-04-01T00:48:34;6.93;;;1.17;;
66559;SDS011;53413;49.878;8.142;2023-04-01T00:51:06;7.07;;;1.30;;
66559;SDS011;53413;49.878;8.142;2023-04-01T00:53:34;5.65;;;1.30;;
66559;SDS011;53413;49.878;8.142;2023-04-01T00:56:10;5.90;;;1.30;;
66559;SDS011;53413;49.878;8.142;2023-04-01T00:58:40;4.90;;;1.03;;
66559;SDS011;53413;49.878;8.142;2023-04-01T01:01:08;3.42;;;0.90;;
66559;SDS011;53413;49.878;8.142;2023-04-01T01:03:34;4.95;;;1.20;;
66559;SDS011;53413;49.878;8.142;2023-04-01T01:11:29;3.83;;;0.85;;
66559;SDS011;53413;49.878;8.142;2023-04-01T01:14:05;6.07;;;0.90;;
66559;SDS011;53413;49.878;8.142;2023-04-01T01:16:42;4.55;;;0.90;;
66559;SDS011;53413;49.878;8.142;2023-04-01T01:19:55;6.35;;;0.90;;
66559;SDS011;53413;49.878;8.142;2023-04-01T01:22:38;2.80;;;0.70;;
66559;SDS011;53413;49.878;8.142;2023-04-01T01:25:40;5.80;;;0.80;;
66559;SDS011;53413;49.878;8.142;2023-04-01T01:36:17;5.67;;;0.90;;
66559;SDS011;53413;49.878;8.142;2023-04-01T01:38:46;4.55;;;1.00;;
66559;SDS011;53413;49.878;8.142;2023-04-01T01:41:13;5.30;;;0.88;;
66559;SDS011;53413;49.878;8.142;2023-04-01T01:43:43;4.57;;;1.10;;
66559;SDS011;53413;49.878;8.142;2023-04-01T01:46:16;4.85;;;0.90;;
66559;SDS011;53413;49.878;8.142;2023-04-01T01:48:45;4.60;;;0.90;;
66559;SDS011;53413;49.878;8.142;2023-04-01T01:51:12;4.38;;;0.93;;
66559;SDS011;53413;49.878;8.142;2023-04-01T01:53:38;3.50;;;0.90;;
66559;SDS011;53413;49.878;8.142;2023-04-01T01:56:03;4.80;;;0.93;;
66559;SDS011;53413;49.878;8.142;2023-04-01T02:01:06;6.38;;;1.10;;
66559;SDS011;53413;49.878;8.142;2023-04-01T02:03:36;4.22;;;1.00;;
66559;SDS011;53413;49.878;8.142;2023-04-01T02:06:04;4.50;;;1.00;;
66559;SDS011;53413;49.878;8.142;2023-04-01T02:11:32;4.85;;;0.93;;
66559;SDS011;53413;49.878;8.142;2023-04-01T02:16:42;6.13;;;0.93;;
66559;SDS011;53413;49.878;8.142;2023-04-01T02:19:13;4.63;;;1.00;;
66559;SDS011;53413;49.878;8.142;2023-04-01T02:21:47;7.07;;;1.10;;
66559;SDS011;53413;49.878;8.142;2023-04-01T02:24:16;2.60;;;0.80;;
66559;SDS011;53413;49.878;8.142;2023-04-01T02:26:43;4.38;;;0.70;;
66559;SDS011;53413;49.878;8.142;2023-04-01T02:29:10;5.30;;;0.90;;
66559;SDS011;53413;49.878;8.142;2023-04-01T02:31:37;5.23;;;0.90;;
66559;SDS011;53413;49.878;8.142;2023-04-01T02:34:02;4.78;;;1.13;;
66559;SDS011;53413;49.878;8.142;2023-04-01T02:36:28;4.80;;;1.30;;
66559;SDS011;53413;49.878;8.142;2023-04-01T02:38:54;4.57;;;1.10;;
66559;SDS011;53413;49.878;8.142;2023-04-01T02:41:24;4.78;;;1.25;;
66559;SDS011;53413;49.878;8.142;2023-04-01T02:43:50;6.67;;;1.10;;
66559;SDS011;53413;49.878;8.142;2023-04-01T02:46:15;8.07;;;1.30;;
66559;SDS011;53413;49.878;8.142;2023-04-01T02:48:41;3.67;;;1.00;;
66559;SDS011;53413;49.878;8.142;2023-04-01T02:51:06;5.33;;;0.93;;
66559;SDS011;53413;49.878;8.142;2023-04-01T02:53:31;4.53;;;0.90;;
66559;SDS011;53413;49.878;8.142;2023-04-01T02:55:57;4.87;;;0.87;;
66559;SDS011;53413;49.878;8.142;2023-04-01T02:58:22;5.20;;;1.00;;
66559;SDS011;53413;49.878;8.142;2023-04-01T03:00:47;5.23;;;1.07;;
66559;SDS011;53413;49.878;8.142;2023-04-01T03:03:12;5.30;;;1.00;;
66559;SDS011;53413;49.878;8.142;2023-04-01T03:05:38;5.55;;;1.17;;
66559;SDS011;53413;49.878;8.142;2023-04-01T03:08:04;3.33;;;1.00;;
66559;SDS011;53413;49.878;8.142;2023-04-01T03:10:30;4.72;;;1.05;;
66559;SDS011;53413;49.878;8.142;2023-04-01T03:12:55;4.97;;;1.07;;
66559;SDS011;53413;49.878;8.142;2023-04-01T03:15:21;5.25;;;0.95;;
66559;SDS011;53413;49.878;8.142;2023-04-01T03:17:46;3.90;;;0.90;;
66559;SDS011;53413;49.878;8.142;2023-04-01T03:20:12;5.00;;;1.00;;
66559;SDS011;53413;49.878;8.142;2023-04-01T03:22:38;4.40;;;0.93;;
66559;SDS011;53413;49.878;8.142;2023-04-01T03:25:04;5.97;;;0.80;;
66559;SDS011;53413;49.878;8.142;2023-04-01T03:27:30;5.50;;;1.00;;
66559;SDS011;53413;49.878;8.142;2023-04-01T03:29:56;4.30;;;0.90;;
66559;SDS011;53413;49.878;8.142;2023-04-01T03:32:21;4.63;;;1.10;;
66559;SDS011;53413;49.878;8.142;2023-04-01T03:34:46;4.25;;;0.90;;
66559;SDS011;53413;49.878;8.142;2023-04-01T03:37:12;3.97;;;0.80;;
66559;SDS011;53413;49.878;8.142;2023-04-01T03:39:37;4.17;;;0.73;;
66559;SDS011;53413;49.878;8.142;2023-04-01T03:42:03;4.53;;;0.80;;
66559;SDS011;53413;49.878;8.142;2023-04-01T03:44:32;5.03;;;0.80;;
66559;SDS011;53413;49.878;8.142;2023-04-01T03:46:58;3.57;;;0.70;;
66559;SDS011;53413;49.878;8.142;2023-04-01T03:49:23;4.45;;;0.82;;
66559;SDS011;53413;49.878;8.142;2023-04-01T03:51:49;5.20;;;0.80;;
66559;SDS011;53413;49.878;8.142;2023-04-01T03:54:14;5.43;;;0.87;;
66559;SDS011;53413;49.878;8.142;2023-04-01T03:56:40;3.23;;;0.70;;
66559;SDS011;53413;49.878;8.142;2023-04-01T03:59:06;3.55;;;0.70;;
66559;SDS011;53413;49.878;8.142;2023-04-01T04:01:32;3.20;;;0.83;;
66559;SDS011;53413;49.878;8.142;2023-04-01T04:03:58;4.50;;;0.90;;
66559;SDS011;53413;49.878;8.142;2023-04-01T04:06:24;4.50;;;0.90;;
66559;SDS011;53413;49.878;8.142;2023-04-01T04:08:50;4.90;;;1.00;;
66559;SDS011;53413;49.878;8.142;2023-04-01T04:11:16;6.43;;;1.00;;
66559;SDS011;53413;49.878;8.142;2023-04-01T04:13:42;3.70;;;0.80;;
66559;SDS011;53413;49.878;8.142;2023-04-01T04:16:07;3.97;;;0.80;;
66559;SDS011;53413;49.878;8.142;2023-04-01T04:18:34;5.05;;;0.90;;
66559;SDS011;53413;49.878;8.142;2023-04-01T04:21:00;4.15;;;0.93;;
66559;SDS011;53413;49.878;8.142;2023-04-01T04:23:25;4.43;;;1.10;;
66559;SDS011;53413;49.878;8.142;2023-04-01T04:25:56;4.13;;;0.80;;
66559;SDS011;53413;49.878;8.142;2023-04-01T04:28:21;5.20;;;0.80;;
66559;SDS011;53413;49.878;8.142;2023-04-01T04:30:47;4.45;;;0.88;;
66559;SDS011;53413;49.878;8.142;2023-04-01T04:33:12;4.03;;;0.70;;
66559;SDS011;53413;49.878;8.142;2023-04-01T04:35:37;4.97;;;0.83;;
66559;SDS011;53413;49.878;8.142;2023-04-01T04:38:03;6.90;;;0.90;;
66559;SDS011;53413;49.878;8.142;2023-04-01T04:40:28;4.33;;;0.80;;
66559;SDS011;53413;49.878;8.142;2023-04-01T04:42:53;5.43;;;0.73;;
66559;SDS011;53413;49.878;8.142;2023-04-01T04:45:19;3.23;;;0.60;;
66559;SDS011;53413;49.878;8.142;2023-04-01T04:47:44;3.75;;;0.77;;
66559;SDS011;53413;49.878;8.142;2023-04-01T04:50:10;3.87;;;0.63;;
66559;SDS011;53413;49.878;8.142;2023-04-01T04:52:36;4.47;;;0.90;;
66559;SDS011;53413;49.878;8.142;2023-04-01T04:55:02;3.63;;;0.60;;
66559;SDS011;53413;49.878;8.142;2023-04-01T04:57:27;4.87;;;0.80;;
66559;SDS011;53413;49.878;8.142;2023-04-01T04:59:53;3.77;;;0.80;;
66559;SDS011;53413;49.878;8.142;2023-04-01T05:02:18;4.63;;;1.00;;
66559;SDS011;53413;49.878;8.142;2023-04-01T05:04:43;3.93;;;0.80;;
66559;SDS011;53413;49.878;8.142;2023-04-01T05:07:08;5.10;;;1.08;;
66559;SDS011;53413;49.878;8.142;2023-04-01T05:09:34;5.17;;;0.70;;
66559;SDS011;53413;49.878;8.142;2023-04-01T05:12:00;5.60;;;0.80;;
66559;SDS011;53413;49.878;8.142;2023-04-01T05:14:25;3.17;;;0.80;;
66559;SDS011;53413;49.878;8.142;2023-04-01T05:16:50;3.90;;;0.80;;
66559;SDS011;53413;49.878;8.142;2023-04-01T05:19:15;5.15;;;0.80;;
66559;SDS011;53413;49.878;8.142;2023-04-01T05:21:42;3.50;;;0.60;;
66559;SDS011;53413;49.878;8.142;2023-04-01T05:24:08;3.73;;;0.70;;
66559;SDS011;53413;49.878;8.142;2023-04-01T05:26:34;3.47;;;0.60;;
66559;SDS011;53413;49.878;8.142;2023-04-01T05:29:00;4.00;;;0.60;;
66559;SDS011;53413;49.878;8.142;2023-04-01T05:31:25;2.83;;;0.60;;
66559;SDS011;53413;49.878;8.142;2023-04-01T05:33:50;2.27;;;0.50;;
66559;SDS011;53413;49.878;8.142;2023-04-01T05:36:16;3.60;;;0.70;;
66559;SDS011;53413;49.878;8.142;2023-04-01T05:38:42;1.85;;;0.40;;
66559;SDS011;53413;49.878;8.142;2023-04-01T05:41:08;2.33;;;0.50;;
66559;SDS011;53413;49.878;8.142;2023-04-01T05:43:37;3.45;;;0.50;;
66559;SDS011;53413;49.878;8.142;2023-04-01T05:46:03;3.08;;;0.55;;
66559;SDS011;53413;49.878;8.142;2023-04-01T05:48:29;2.37;;;0.50;;
66559;SDS011;53413;49.878;8.142;2023-04-01T05:50:55;3.17;;;0.60;;
66559;SDS011;53413;49.878;8.142;2023-04-01T05:53:20;2.85;;;0.50;;
66559;SDS011;53413;49.878;8.142;2023-04-01T05:55:45;2.20;;;0.50;;
66559;SDS011;53413;49.878;8.142;2023-04-01T05:58:11;3.23;;;0.50;;
66559;SDS011;53413;49.878;8.142;2023-04-01T06:00:36;2.87;;;0.50;;
66559;SDS011;53413;49.878;8.142;2023-04-01T06:03:03;4.13;;;0.60;;
66559;SDS011;53413;49.878;8.142;2023-04-01T06:05:29;2.93;;;0.50;;
66559;SDS011;53413;49.878;8.142;2023-04-01T06:08:13;2.45;;;0.50;;
66559;SDS011;53413;49.878;8.142;2023-04-01T06:16:07;3.60;;;0.50;;
66559;SDS011;53413;49.878;8.142;2023-04-01T06:27:24;2.83;;;0.60;;
66559;SDS011;53413;49.878;8.142;2023-04-01T06:38:48;2.10;;;0.40;;
66559;SDS011;53413;49.878;8.142;2023-04-01T06:44:17;2.42;;;0.43;;
66559;SDS011;53413;49.878;8.142;2023-04-01T06:47:07;2.22;;;0.40;;
66559;SDS011;53413;49.878;8.142;2023-04-01T06:49:53;3.72;;;0.60;;
66559;SDS011;53413;49.878;8.142;2023-04-01T06:52:31;2.95;;;0.50;;
66559;SDS011;53413;49.878;8.142;2023-04-01T06:55:52;1.90;;;0.50;;
66559;SDS011;53413;49.878;8.142;2023-04-01T06:58:03;2.40;;;0.60;;
66559;SDS011;53413;49.878;8.142;2023-04-01T07:00:37;3.50;;;0.70;;
66559;SDS011;53413;49.878;8.142;2023-04-01T07:03:20;3.20;;;0.50;;
66559;SDS011;53413;49.878;8.142;2023-04-01T07:05:46;1.85;;;0.40;;
66559;SDS011;53413;49.878;8.142;2023-04-01T07:08:13;6.63;;;1.70;;
66559;SDS011;53413;49.878;8.142;2023-04-01T07:10:54;3.85;;;0.80;;
66559;SDS011;53413;49.878;8.142;2023-04-01T07:13:34;5.07;;;0.90;;
66559;SDS011;53413;49.878;8.142;2023-04-01T07:21:51;2.05;;;0.50;;
66559;SDS011;53413;49.878;8.142;2023-04-01T07:24:25;4.10;;;0.70;;
66559;SDS011;53413;49.878;8.142;2023-04-01T07:26:55;2.53;;;0.50;;
66559;SDS011;53413;49.878;8.142;2023-04-01T07:29:22;1.45;;;0.40;;
66559;SDS011;53413;49.878;8.142;2023-04-01T07:34:40;2.65;;;0.50;;
66559;SDS011;53413;49.878;8.142;2023-04-01T07:37:24;1.98;;;0.50;;
66559;SDS011;53413;49.878;8.142;2023-04-01T07:40:32;2.22;;;0.50;;
66559;SDS011;53413;49.878;8.142;2023-04-01T07:45:43;2.43;;;0.60;;
66559;SDS011;53413;49.878;8.142;2023-04-01T07:51:02;2.40;;;0.50;;
66559;SDS011;53413;49.878;8.142;2023-04-01T07:59:44;2.10;;;0.60;;
66559;SDS011;53413;49.878;8.142;2023-04-01T08:07:49;2.45;;;0.50;;
66559;SDS011;53413;49.878;8.142;2023-04-01T08:10:23;1.63;;;0.50;;
66559;SDS011;53413;49.878;8.142;2023-04-01T08:21:32;1.95;;;0.50;;
66559;SDS011;53413;49.878;8.142;2023-04-01T08:24:50;1.70;;;0.50;;
66559;SDS011;53413;49.878;8.142;2023-04-01T08:27:39;2.03;;;0.40;;
66559;SDS011;53413;49.878;8.142;2023-04-01T08:33:19;2.00;;;0.50;;
66559;SDS011;53413;49.878;8.142;2023-04-01T08:35:42;1.77;;;0.50;;
66559;SDS011;53413;49.878;8.142;2023-04-01T08:38:39;2.20;;;0.52;;
66559;SDS011;53413;49.878;8.142;2023-04-01T08:41:12;1.80;;;0.53;;
66559;SDS011;53413;49.878;8.142;2023-04-01T08:50:12;1.30;;;0.40;;
66559;SDS011;53413;49.878;8.142;2023-04-01T08:52:48;1.75;;;0.50;;
66559;SDS011;53413;49.878;8.142;2023-04-01T08:55:36;2.17;;;0.50;;
66559;SDS011;53413;49.878;8.142;2023-04-01T08:58:24;1.80;;;0.52;;
66559;SDS011;53413;49.878;8.142;2023-04-01T09:07:25;1.75;;;0.57;;
66559;SDS011;53413;49.878;8.142;2023-04-01T09:09:46;2.13;;;0.50;;
66559;SDS011;53413;49.878;8.142;2023-04-01T09:20:45;1.77;;;0.40;;
66559;SDS011;53413;49.878;8.142;2023-04-01T09:40:16;1.75;;;0.47;;
66559;SDS011;53413;49.878;8.142;2023-04-01T09:50:27;1.80;;;0.50;;
66559;SDS011;53413;49.878;8.142;2023-04-01T09:53:12;2.07;;;0.50;;
66559;SDS011;53413;49.878;8.142;2023-04-01T10:06:51;1.90;;;0.50;;
66559;SDS011;53413;49.878;8.142;2023-04-01T10:54:40;2.53;;;0.50;;
66559;SDS011;53413;49.878;8.142;2023-04-01T11:17:14;1.77;;;0.50;;
66559;SDS011;53413;49.878;8.142;2023-04-01T11:45:50;2.15;;;0.60;;
66559;SDS011;53413;49.878;8.142;2023-04-01T11:57:09;2.03;;;0.70;;
66559;SDS011;53413;49.878;8.142;2023-04-01T11:59:51;1.70;;;0.50;;
66559;SDS011;53413;49.878;8.142;2023-04-01T12:10:33;1.85;;;0.50;;
66559;SDS011;53413;49.878;8.142;2023-04-01T12:18:57;1.80;;;0.60;;
66559;SDS011;53413;49.878;8.142;2023-04-01T12:24:33;1.90;;;0.50;;
66559;SDS011;53413;49.878;8.142;2023-04-01T12:36:23;2.17;;;0.60;;
66559;SDS011;53413;49.878;8.142;2023-04-01T12:44:41;2.35;;;0.68;;
66559;SDS011;53413;49.878;8.142;2023-04-01T12:47:31;2.23;;;0.50;;
66559;SDS011;53413;49.878;8.142;2023-04-01T13:01:22;2.03;;;0.60;;
66559;SDS011;53413;49.878;8.142;2023-04-01T13:06:29;2.13;;;0.70;;
66559;SDS011;53413;49.878;8.142;2023-04-01T13:09:07;2.22;;;0.60;;
66559;SDS011;53413;49.878;8.142;2023-04-01T13:11:57;2.00;;;0.60;;
66559;SDS011;53413;49.878;8.142;2023-04-01T13:14:54;2.60;;;0.63;;
66559;SDS011;53413;49.878;8.142;2023-04-01T13:20:33;2.78;;;0.70;;
66559;SDS011;53413;49.878;8.142;2023-04-01T13:25:47;2.35;;;0.70;;
66559;SDS011;53413;49.878;8.142;2023-04-01T13:33:44;3.40;;;1.17;;
66559;SDS011;53413;49.878;8.142;2023-04-01T13:46:52;2.33;;;0.80;;
66559;SDS011;53413;49.878;8.142;2023-04-01T13:57:16;2.00;;;0.60;;
66559;SDS011;53413;49.878;8.142;2023-04-01T14:14:35;2.35;;;0.50;;
66559;SDS011;53413;49.878;8.142;2023-04-01T14:28:32;2.00;;;0.60;;
66559;SDS011;53413;49.878;8.142;2023-04-01T14:50:56;3.17;;;0.50;;
66559;SDS011;53413;49.878;8.142;2023-04-01T14:53:29;2.30;;;0.60;;
66559;SDS011;53413;49.878;8.142;2023-04-01T14:55:59;2.13;;;0.45;;
66559;SDS011;53413;49.878;8.142;2023-04-01T14:58:41;1.70;;;0.55;;
66559;SDS011;53413;49.878;8.142;2023-04-01T15:04:30;3.13;;;0.60;;
66559;SDS011;53413;49.878;8.142;2023-04-01T15:09:38;2.07;;;0.50;;
66559;SDS011;53413;49.878;8.142;2023-04-01T15:26:18;1.83;;;0.50;;
66559;SDS011;53413;49.878;8.142;2023-04-01T15:31:31;2.00;;;0.60;;
66559;SDS011;53413;49.878;8.142;2023-04-01T15:39:42;2.00;;;0.50;;
66559;SDS011;53413;49.878;8.142;2023-04-01T15:42:23;1.75;;;0.40;;
66559;SDS011;53413;49.878;8.142;2023-04-01T15:47:52;1.65;;;0.40;;
66559;SDS011;53413;49.878;8.142;2023-04-01T16:17:28;2.63;;;0.70;;
66559;SDS011;53413;49.878;8.142;2023-04-01T16:19:59;2.63;;;0.63;;
66559;SDS011;53413;49.878;8.142;2023-04-01T16:22:39;3.20;;;1.00;;
66559;SDS011;53413;49.878;8.142;2023-04-01T16:33:32;2.20;;;0.43;;
66559;SDS011;53413;49.878;8.142;2023-04-01T16:36:39;2.30;;;0.60;;
66559;SDS011;53413;49.878;8.142;2023-04-01T16:41:48;3.42;;;1.40;;
66559;SDS011;53413;49.878;8.142;2023-04-01T16:44:25;2.08;;;0.60;;
66559;SDS011;53413;49.878;8.142;2023-04-01T16:46:53;2.20;;;0.60;;
66559;SDS011;53413;49.878;8.142;2023-04-01T16:49:29;2.83;;;0.70;;
66559;SDS011;53413;49.878;8.142;2023-04-01T17:02:26;3.77;;;1.10;;
66559;SDS011;53413;49.878;8.142;2023-04-01T17:05:06;3.70;;;1.40;;
66559;SDS011;53413;49.878;8.142;2023-04-01T17:18:00;2.27;;;0.70;;
66559;SDS011;53413;49.878;8.142;2023-04-01T17:52:50;3.80;;;1.50;;
66559;SDS011;53413;49.878;8.142;2023-04-01T18:17:06;2.58;;;0.88;;
66559;SDS011;53413;49.878;8.142;2023-04-01T18:30:31;3.80;;;1.10;;
66559;SDS011;53413;49.878;8.142;2023-04-01T18:38:37;3.70;;;1.50;;
66559;SDS011;53413;49.878;8.142;2023-04-01T18:41:19;4.18;;;1.50;;
66559;SDS011;53413;49.878;8.142;2023-04-01T18:44:27;5.35;;;1.95;;
66559;SDS011;53413;49.878;8.142;2023-04-01T18:49:41;3.97;;;1.70;;
66559;SDS011;53413;49.878;8.142;2023-04-01T18:55:18;4.60;;;1.83;;
66559;SDS011;53413;49.878;8.142;2023-04-01T18:57:51;7.03;;;2.72;;
66559;SDS011;53413;49.878;8.142;2023-04-01T19:02:48;3.60;;;1.70;;
66559;SDS011;53413;49.878;8.142;2023-04-01T19:05:29;3.10;;;1.30;;
66559;SDS011;53413;49.878;8.142;2023-04-01T19:08:14;3.10;;;1.30;;
66559;SDS011;53413;49.878;8.142;2023-04-01T19:21:44;2.93;;;1.07;;
66559;SDS011;53413;49.878;8.142;2023-04-01T19:42:56;3.00;;;1.00;;
66559;SDS011;53413;49.878;8.142;2023-04-01T19:46:00;3.40;;;1.00;;
66559;SDS011;53413;49.878;8.142;2023-04-01T19:56:47;2.85;;;1.10;;
66559;SDS011;53413;49.878;8.142;2023-04-01T19:59:28;4.78;;;1.70;;
66559;SDS011;53413;49.878;8.142;2023-04-01T20:04:40;4.50;;;1.30;;
66559;SDS011;53413;49.878;8.142;2023-04-01T20:07:17;4.25;;;1.40;;
66559;SDS011;53413;49.878;8.142;2023-04-01T20:15:38;3.72;;;1.20;;
66559;SDS011;53413;49.878;8.142;2023-04-01T20:19:07;3.87;;;1.20;;
66559;SDS011;53413;49.878;8.142;2023-04-01T20:26:40;2.88;;;1.13;;
66559;SDS011;53413;49.878;8.142;2023-04-01T20:37:57;3.10;;;1.00;;
66559;SDS011;53413;49.878;8.142;2023-04-01T20:40:44;3.38;;;0.95;;
66559;SDS011;53413;49.878;8.142;2023-04-01T20:45:56;3.63;;;1.10;;
66559;SDS011;53413;49.878;8.142;2023-04-01T20:51:32;3.00;;;1.08;;
66559;SDS011;53413;49.878;8.142;2023-04-01T21:05:26;3.80;;;1.40;;
66559;SDS011;53413;49.878;8.142;2023-04-01T21:11:18;3.40;;;1.50;;
66559;SDS011;53413;49.878;8.142;2023-04-01T21:22:27;3.53;;;1.40;;
66559;SDS011;53413;49.878;8.142;2023-04-01T21:28:09;4.85;;;1.45;;
66559;SDS011;53413;49.878;8.142;2023-04-01T21:30:53;3.60;;;1.50;;
66559;SDS011;53413;49.878;8.142;2023-04-01T21:39:15;4.40;;;1.60;;
66559;SDS011;53413;49.878;8.142;2023-04-01T21:47:28;3.53;;;1.30;;
66559;SDS011;53413;49.878;8.142;2023-04-01T21:53:00;3.60;;;1.30;;
66559;SDS011;53413;49.878;8.142;2023-04-01T22:03:50;3.60;;;1.40;;
66559;SDS011;53413;49.878;8.142;2023-04-01T22:09:12;4.25;;;1.70;;
66559;SDS011;53413;49.878;8.142;2023-04-01T22:11:52;4.20;;;1.83;;
66559;SDS011;53413;49.878;8.142;2023-04-01T22:17:24;6.63;;;2.05;;
66559;SDS011;53413;49.878;8.142;2023-04-01T22:20:15;4.57;;;2.08;;
66559;SDS011;53413;49.878;8.142;2023-04-01T22:31:11;5.90;;;2.40;;
66559;SDS011;53413;49.878;8.142;2023-04-01T22:33:32;5.05;;;2.30;;
66559;SDS011;53413;49.878;8.142;2023-04-01T22:36:12;5.43;;;2.30;;
66559;SDS011;53413;49.878;8.142;2023-04-01T22:38:54;5.10;;;1.93;;
66559;SDS011;53413;49.878;8.142;2023-04-01T22:50:05;4.57;;;1.40;;
66559;SDS011;53413;49.878;8.142;2023-04-01T22:52:42;3.70;;;1.50;;
66559;SDS011;53413;49.878;8.142;2023-04-01T22:55:25;3.53;;;1.50;;
66559;SDS011;53413;49.878;8.142;2023-04-01T22:57:59;4.30;;;1.40;;
66559;SDS011;53413;49.878;8.142;2023-04-01T23:00:30;3.50;;;1.23;;
66559;SDS011;53413;49.878;8.142;2023-04-01T23:03:04;3.53;;;1.40;;
66559;SDS011;53413;49.878;8.142;2023-04-01T23:05:52;3.87;;;1.20;;
66559;SDS011;53413;49.878;8.142;2023-04-01T23:13:25;3.50;;;1.27;;
66559;SDS011;53413;49.878;8.142;2023-04-01T23:15:56;3.60;;;1.42;;
66559;SDS011;53413;49.878;8.142;2023-04-01T23:18:27;3.43;;;1.33;;
66559;SDS011;53413;49.878;8.142;2023-04-01T23:21:09;4.43;;;1.45;;
66559;SDS011;53413;49.878;8.142;2023-04-01T23:23:48;4.15;;;1.60;;
66559;SDS011;53413;49.878;8.142;2023-04-01T23:28:54;3.17;;;1.10;;
66559;SDS011;53413;49.878;8.142;2023-04-01T23:33:53;3.90;;;1.30;;
66559;SDS011;53413;49.878;8.142;2023-04-01T23:36:20;3.10;;;1.20;;
66559;SDS011;53413;49.878;8.142;2023-04-01T23:38:47;3.33;;;1.27;;
66559;SDS011;53413;49.878;8.142;2023-04-01T23:41:32;3.67;;;1.40;;
66559;SDS011;53413;49.878;8.142;2023-04-01T23:43:59;3.70;;;1.50;;
66559;SDS011;53413;49.878;8.142;2023-04-01T23:46:28;3.97;;;1.40;;
66559;SDS011;53413;49.878;8.142;2023-04-01T23:48:57;3.70;;;1.42;;
66559;SDS011;53413;49.878;8.142;2023-04-01T23:51:25;3.97;;;1.70;;
66559;SDS011;53413;49.878;8.142;2023-04-01T23:54:02;4.35;;;1.58;;
66559;SDS011;53413;49.878;8.142;2023-04-01T23:56:39;4.38;;;1.90;;
66559;SDS011;53413;49.878;8.142;2023-04-01T23:59:18;4.78;;;2.10;;
